sensor_id;sensor_type;location;lat;lon;timestamp;P1;durP1;ratioP1;P2;durP2;ratioP2
7201;SDS011;3642;52.506;13.304;2022-07-19T00:01:52;5.88;;;3.65;;
7201;SDS011;3642;52.506;13.304;2022-07-19T00:04:20;4.60;;;3.65;;
7201;SDS011;3642;52.506;13.304;2022-07-19T00:06:48;6.55;;;4.32;;
7201;SDS011;3642;52.506;13.304;2022-07-19T00:09:18;6.63;;;3.85;;
7201;SDS011;3642;52.506;13.304;2022-07-19T00:11:46;5.55;;;3.97;;
7201;SDS011;3642;52.506;13.304;2022-07-19T00:14:15;5.22;;;3.75;;
7201;SDS011;3642;52.506;13.304;2022-07-19T00:16:43;6.07;;;4.05;;
7201;SDS011;3642;52.506;13.304;2022-07-19T00:19:12;7.45;;;3.92;;
7201;SDS011;3642;52.506;13.304;2022-07-19T00:21:40;4.68;;;3.53;;
7201;SDS011;3642;52.506;13.304;2022-07-19T00:24:08;5.10;;;3.50;;
7201;SDS011;3642;52.506;13.304;2022-07-19T00:26:38;6.10;;;3.60;;
7201;SDS011;3642;52.506;13.304;2022-07-19T00:29:06;7.28;;;3.55;;
7201;SDS011;3642;52.506;13.304;2022-07-19T00:31:34;5.70;;;3.53;;
7201;SDS011;3642;52.506;13.304;2022-07-19T00:34:03;3.65;;;3.25;;
7201;SDS011;3642;52.506;13.304;2022-07-19T00:36:31;6.43;;;3.67;;
7201;SDS011;3642;52.506;13.304;2022-07-19T00:38:59;4.55;;;3.30;;
7201;SDS011;3642;52.506;13.304;2022-07-19T00:41:27;4.38;;;3.53;;
7201;SDS011;3642;52.506;13.304;2022-07-19T00:43:57;7.03;;;3.72;;
7201;SDS011;3642;52.506;13.304;2022-07-19T00:46:25;5.05;;;3.25;;
7201;SDS011;3642;52.506;13.304;2022-07-19T00:48:54;4.97;;;3.63;;
7201;SDS011;3642;52.506;13.304;2022-07-19T00:51:22;3.67;;;3.08;;
7201;SDS011;3642;52.506;13.304;2022-07-19T00:53:50;4.30;;;3.58;;
7201;SDS011;3642;52.506;13.304;2022-07-19T00:56:19;6.07;;;3.72;;
7201;SDS011;3642;52.506;13.304;2022-07-19T00:58:50;5.70;;;3.58;;
7201;SDS011;3642;52.506;13.304;2022-07-19T01:01:20;5.97;;;3.50;;
7201;SDS011;3642;52.506;13.304;2022-07-19T01:03:49;4.07;;;3.28;;
7201;SDS011;3642;52.506;13.304;2022-07-19T01:06:18;5.45;;;3.70;;
7201;SDS011;3642;52.506;13.304;2022-07-19T01:08:48;5.38;;;3.85;;
7201;SDS011;3642;52.506;13.304;2022-07-19T01:11:16;4.38;;;3.28;;
7201;SDS011;3642;52.506;13.304;2022-07-19T01:13:44;5.43;;;3.80;;
7201;SDS011;3642;52.506;13.304;2022-07-19T01:16:13;4.85;;;3.55;;
7201;SDS011;3642;52.506;13.304;2022-07-19T01:18:42;5.55;;;3.47;;
7201;SDS011;3642;52.506;13.304;2022-07-19T01:21:20;6.78;;;3.58;;
7201;SDS011;3642;52.506;13.304;2022-07-19T01:23:48;4.45;;;3.45;;
7201;SDS011;3642;52.506;13.304;2022-07-19T01:26:17;5.68;;;3.17;;
7201;SDS011;3642;52.506;13.304;2022-07-19T01:28:46;7.00;;;3.13;;
7201;SDS011;3642;52.506;13.304;2022-07-19T01:31:14;4.28;;;3.25;;
7201;SDS011;3642;52.506;13.304;2022-07-19T01:33:43;5.35;;;3.03;;
7201;SDS011;3642;52.506;13.304;2022-07-19T01:36:11;7.20;;;3.70;;
7201;SDS011;3642;52.506;13.304;2022-07-19T01:38:41;6.60;;;3.42;;
7201;SDS011;3642;52.506;13.304;2022-07-19T01:41:09;5.68;;;3.42;;
7201;SDS011;3642;52.506;13.304;2022-07-19T01:43:37;3.63;;;3.25;;
7201;SDS011;3642;52.506;13.304;2022-07-19T01:46:06;4.82;;;3.15;;
7201;SDS011;3642;52.506;13.304;2022-07-19T01:48:34;6.70;;;3.45;;
7201;SDS011;3642;52.506;13.304;2022-07-19T01:51:04;4.13;;;3.15;;
7201;SDS011;3642;52.506;13.304;2022-07-19T01:53:32;4.32;;;3.42;;
7201;SDS011;3642;52.506;13.304;2022-07-19T01:56:04;4.80;;;3.55;;
7201;SDS011;3642;52.506;13.304;2022-07-19T01:58:33;3.83;;;3.22;;
7201;SDS011;3642;52.506;13.304;2022-07-19T02:01:01;4.30;;;3.35;;
7201;SDS011;3642;52.506;13.304;2022-07-19T02:03:30;4.97;;;3.70;;
7201;SDS011;3642;52.506;13.304;2022-07-19T02:05:58;3.47;;;2.90;;
7201;SDS011;3642;52.506;13.304;2022-07-19T02:08:26;3.97;;;3.10;;
7201;SDS011;3642;52.506;13.304;2022-07-19T02:10:54;6.28;;;3.30;;
7201;SDS011;3642;52.506;13.304;2022-07-19T02:13:24;3.80;;;3.05;;
7201;SDS011;3642;52.506;13.304;2022-07-19T02:15:52;5.15;;;3.50;;
7201;SDS011;3642;52.506;13.304;2022-07-19T02:18:20;5.05;;;3.40;;
7201;SDS011;3642;52.506;13.304;2022-07-19T02:20:48;7.53;;;3.20;;
7201;SDS011;3642;52.506;13.304;2022-07-19T02:23:16;4.25;;;3.15;;
7201;SDS011;3642;52.506;13.304;2022-07-19T02:25:47;4.65;;;2.92;;
7201;SDS011;3642;52.506;13.304;2022-07-19T02:28:15;4.65;;;3.13;;
7201;SDS011;3642;52.506;13.304;2022-07-19T02:30:45;5.00;;;3.05;;
7201;SDS011;3642;52.506;13.304;2022-07-19T02:33:13;4.25;;;2.92;;
7201;SDS011;3642;52.506;13.304;2022-07-19T02:35:41;3.97;;;2.67;;
7201;SDS011;3642;52.506;13.304;2022-07-19T02:38:09;3.85;;;2.60;;
7201;SDS011;3642;52.506;13.304;2022-07-19T02:40:37;3.67;;;2.63;;
7201;SDS011;3642;52.506;13.304;2022-07-19T02:43:05;4.47;;;3.40;;
7201;SDS011;3642;52.506;13.304;2022-07-19T02:45:33;4.13;;;3.55;;
7201;SDS011;3642;52.506;13.304;2022-07-19T02:48:03;9.65;;;5.75;;
7201;SDS011;3642;52.506;13.304;2022-07-19T02:50:31;11.52;;;7.38;;
7201;SDS011;3642;52.506;13.304;2022-07-19T02:52:59;7.25;;;6.03;;
7201;SDS011;3642;52.506;13.304;2022-07-19T02:55:28;6.20;;;4.78;;
7201;SDS011;3642;52.506;13.304;2022-07-19T02:57:57;5.68;;;3.55;;
7201;SDS011;3642;52.506;13.304;2022-07-19T03:00:25;4.32;;;3.47;;
7201;SDS011;3642;52.506;13.304;2022-07-19T03:02:53;3.10;;;2.80;;
7201;SDS011;3642;52.506;13.304;2022-07-19T03:05:24;4.10;;;3.10;;
7201;SDS011;3642;52.506;13.304;2022-07-19T03:07:52;5.63;;;2.57;;
7201;SDS011;3642;52.506;13.304;2022-07-19T03:10:20;7.60;;;2.97;;
7201;SDS011;3642;52.506;13.304;2022-07-19T03:12:48;7.50;;;4.43;;
7201;SDS011;3642;52.506;13.304;2022-07-19T03:15:16;8.20;;;5.70;;
7201;SDS011;3642;52.506;13.304;2022-07-19T03:17:44;9.02;;;6.35;;
7201;SDS011;3642;52.506;13.304;2022-07-19T03:20:12;9.23;;;5.85;;
7201;SDS011;3642;52.506;13.304;2022-07-19T03:22:43;7.47;;;5.45;;
7201;SDS011;3642;52.506;13.304;2022-07-19T03:25:11;6.07;;;4.32;;
7201;SDS011;3642;52.506;13.304;2022-07-19T03:27:39;6.63;;;3.90;;
7201;SDS011;3642;52.506;13.304;2022-07-19T03:30:07;8.93;;;3.90;;
7201;SDS011;3642;52.506;13.304;2022-07-19T03:32:36;4.10;;;3.30;;
7201;SDS011;3642;52.506;13.304;2022-07-19T03:35:05;6.45;;;3.92;;
7201;SDS011;3642;52.506;13.304;2022-07-19T03:37:34;5.40;;;3.67;;
7201;SDS011;3642;52.506;13.304;2022-07-19T03:40:04;4.53;;;3.33;;
7201;SDS011;3642;52.506;13.304;2022-07-19T03:42:33;7.57;;;4.53;;
7201;SDS011;3642;52.506;13.304;2022-07-19T03:45:01;8.23;;;5.47;;
7201;SDS011;3642;52.506;13.304;2022-07-19T03:47:30;9.00;;;6.83;;
7201;SDS011;3642;52.506;13.304;2022-07-19T03:49:58;9.75;;;7.32;;
7201;SDS011;3642;52.506;13.304;2022-07-19T03:52:29;11.65;;;7.20;;
7201;SDS011;3642;52.506;13.304;2022-07-19T03:54:57;7.45;;;5.22;;
7201;SDS011;3642;52.506;13.304;2022-07-19T03:57:27;5.97;;;4.80;;
7201;SDS011;3642;52.506;13.304;2022-07-19T03:59:55;7.15;;;5.35;;
7201;SDS011;3642;52.506;13.304;2022-07-19T04:02:23;8.57;;;5.05;;
7201;SDS011;3642;52.506;13.304;2022-07-19T04:04:52;7.30;;;4.57;;
7201;SDS011;3642;52.506;13.304;2022-07-19T04:07:20;6.40;;;4.47;;
7201;SDS011;3642;52.506;13.304;2022-07-19T04:09:48;7.60;;;4.35;;
7201;SDS011;3642;52.506;13.304;2022-07-19T04:12:16;6.10;;;4.07;;
7201;SDS011;3642;52.506;13.304;2022-07-19T04:14:46;7.30;;;3.60;;
7201;SDS011;3642;52.506;13.304;2022-07-19T04:17:14;5.80;;;4.63;;
7201;SDS011;3642;52.506;13.304;2022-07-19T04:19:43;9.10;;;6.13;;
7201;SDS011;3642;52.506;13.304;2022-07-19T04:22:11;9.70;;;5.63;;
7201;SDS011;3642;52.506;13.304;2022-07-19T04:24:39;9.83;;;5.97;;
7201;SDS011;3642;52.506;13.304;2022-07-19T04:27:07;13.38;;;6.47;;
7201;SDS011;3642;52.506;13.304;2022-07-19T04:29:36;10.57;;;6.05;;
7201;SDS011;3642;52.506;13.304;2022-07-19T04:32:06;10.95;;;7.20;;
7201;SDS011;3642;52.506;13.304;2022-07-19T04:34:34;12.77;;;8.05;;
7201;SDS011;3642;52.506;13.304;2022-07-19T04:37:04;10.13;;;6.75;;
7201;SDS011;3642;52.506;13.304;2022-07-19T04:39:33;9.45;;;5.65;;
7201;SDS011;3642;52.506;13.304;2022-07-19T04:42:01;10.77;;;5.50;;
7201;SDS011;3642;52.506;13.304;2022-07-19T04:44:29;7.00;;;5.07;;
7201;SDS011;3642;52.506;13.304;2022-07-19T04:46:58;9.95;;;5.30;;
7201;SDS011;3642;52.506;13.304;2022-07-19T04:49:28;6.70;;;4.45;;
7201;SDS011;3642;52.506;13.304;2022-07-19T04:51:56;6.82;;;5.22;;
7201;SDS011;3642;52.506;13.304;2022-07-19T04:54:25;9.73;;;5.82;;
7201;SDS011;3642;52.506;13.304;2022-07-19T04:56:53;8.43;;;6.18;;
7201;SDS011;3642;52.506;13.304;2022-07-19T04:59:21;7.85;;;5.50;;
7201;SDS011;3642;52.506;13.304;2022-07-19T05:01:49;8.10;;;5.72;;
7201;SDS011;3642;52.506;13.304;2022-07-19T05:04:18;10.93;;;6.45;;
7201;SDS011;3642;52.506;13.304;2022-07-19T05:06:49;7.47;;;5.87;;
7201;SDS011;3642;52.506;13.304;2022-07-19T05:09:23;6.55;;;4.20;;
7201;SDS011;3642;52.506;13.304;2022-07-19T05:11:52;8.33;;;4.67;;
7201;SDS011;3642;52.506;13.304;2022-07-19T05:14:20;8.32;;;4.53;;
7201;SDS011;3642;52.506;13.304;2022-07-19T05:16:49;7.03;;;4.00;;
7201;SDS011;3642;52.506;13.304;2022-07-19T05:19:18;6.57;;;3.80;;
7201;SDS011;3642;52.506;13.304;2022-07-19T05:21:49;5.32;;;3.45;;
7201;SDS011;3642;52.506;13.304;2022-07-19T05:24:18;6.53;;;3.75;;
7201;SDS011;3642;52.506;13.304;2022-07-19T05:26:46;7.32;;;3.90;;
7201;SDS011;3642;52.506;13.304;2022-07-19T05:29:14;7.50;;;4.05;;
7201;SDS011;3642;52.506;13.304;2022-07-19T05:31:43;5.93;;;4.43;;
7201;SDS011;3642;52.506;13.304;2022-07-19T05:34:11;7.45;;;4.50;;
7201;SDS011;3642;52.506;13.304;2022-07-19T05:36:39;4.88;;;3.47;;
7201;SDS011;3642;52.506;13.304;2022-07-19T05:39:09;6.00;;;4.30;;
7201;SDS011;3642;52.506;13.304;2022-07-19T05:41:38;5.30;;;3.70;;
7201;SDS011;3642;52.506;13.304;2022-07-19T05:44:06;6.93;;;4.60;;
7201;SDS011;3642;52.506;13.304;2022-07-19T05:46:34;7.15;;;4.28;;
7201;SDS011;3642;52.506;13.304;2022-07-19T05:49:09;9.95;;;6.85;;
7201;SDS011;3642;52.506;13.304;2022-07-19T05:51:37;8.73;;;4.63;;
7201;SDS011;3642;52.506;13.304;2022-07-19T05:54:05;8.93;;;4.70;;
7201;SDS011;3642;52.506;13.304;2022-07-19T05:56:36;7.38;;;4.15;;
7201;SDS011;3642;52.506;13.304;2022-07-19T05:59:04;7.82;;;4.30;;
7201;SDS011;3642;52.506;13.304;2022-07-19T06:01:35;5.93;;;3.67;;
7201;SDS011;3642;52.506;13.304;2022-07-19T06:04:05;6.97;;;4.40;;
7201;SDS011;3642;52.506;13.304;2022-07-19T06:06:33;5.22;;;3.67;;
7201;SDS011;3642;52.506;13.304;2022-07-19T06:09:02;7.03;;;3.92;;
7201;SDS011;3642;52.506;13.304;2022-07-19T06:11:32;8.63;;;3.65;;
7201;SDS011;3642;52.506;13.304;2022-07-19T06:14:03;5.38;;;3.08;;
7201;SDS011;3642;52.506;13.304;2022-07-19T06:16:33;4.75;;;2.90;;
7201;SDS011;3642;52.506;13.304;2022-07-19T06:19:01;9.82;;;3.17;;
7201;SDS011;3642;52.506;13.304;2022-07-19T06:21:30;9.38;;;3.78;;
7201;SDS011;3642;52.506;13.304;2022-07-19T06:24:00;5.57;;;2.85;;
7201;SDS011;3642;52.506;13.304;2022-07-19T06:26:30;5.38;;;2.65;;
7201;SDS011;3642;52.506;13.304;2022-07-19T06:28:59;4.43;;;2.70;;
7201;SDS011;3642;52.506;13.304;2022-07-19T06:31:29;4.53;;;2.67;;
7201;SDS011;3642;52.506;13.304;2022-07-19T06:33:58;7.35;;;3.00;;
7201;SDS011;3642;52.506;13.304;2022-07-19T06:36:26;6.32;;;2.40;;
7201;SDS011;3642;52.506;13.304;2022-07-19T06:38:54;4.68;;;2.30;;
7201;SDS011;3642;52.506;13.304;2022-07-19T06:41:23;4.10;;;2.22;;
7201;SDS011;3642;52.506;13.304;2022-07-19T06:43:56;2.30;;;2.00;;
7201;SDS011;3642;52.506;13.304;2022-07-19T06:46:24;3.83;;;2.20;;
7201;SDS011;3642;52.506;13.304;2022-07-19T06:48:54;5.35;;;2.10;;
7201;SDS011;3642;52.506;13.304;2022-07-19T06:51:23;2.88;;;2.00;;
7201;SDS011;3642;52.506;13.304;2022-07-19T06:53:51;3.30;;;2.42;;
7201;SDS011;3642;52.506;13.304;2022-07-19T06:56:19;4.20;;;2.25;;
7201;SDS011;3642;52.506;13.304;2022-07-19T06:58:48;3.30;;;1.77;;
7201;SDS011;3642;52.506;13.304;2022-07-19T07:01:16;2.33;;;2.13;;
7201;SDS011;3642;52.506;13.304;2022-07-19T07:03:45;2.45;;;1.90;;
7201;SDS011;3642;52.506;13.304;2022-07-19T07:06:15;2.72;;;1.55;;
7201;SDS011;3642;52.506;13.304;2022-07-19T07:08:43;4.15;;;2.40;;
7201;SDS011;3642;52.506;13.304;2022-07-19T07:11:11;4.75;;;2.42;;
7201;SDS011;3642;52.506;13.304;2022-07-19T07:13:40;5.10;;;2.33;;
7201;SDS011;3642;52.506;13.304;2022-07-19T07:16:09;3.15;;;2.13;;
7201;SDS011;3642;52.506;13.304;2022-07-19T07:18:37;6.18;;;2.38;;
7201;SDS011;3642;52.506;13.304;2022-07-19T07:21:06;1.75;;;1.65;;
7201;SDS011;3642;52.506;13.304;2022-07-19T07:23:36;3.00;;;1.88;;
7201;SDS011;3642;52.506;13.304;2022-07-19T07:26:04;2.53;;;1.70;;
7201;SDS011;3642;52.506;13.304;2022-07-19T07:28:33;3.28;;;2.15;;
7201;SDS011;3642;52.506;13.304;2022-07-19T07:31:01;3.58;;;1.88;;
7201;SDS011;3642;52.506;13.304;2022-07-19T07:33:30;3.97;;;1.80;;
7201;SDS011;3642;52.506;13.304;2022-07-19T07:35:58;2.67;;;1.80;;
7201;SDS011;3642;52.506;13.304;2022-07-19T07:38:27;3.33;;;1.90;;
7201;SDS011;3642;52.506;13.304;2022-07-19T07:40:56;4.25;;;2.03;;
7201;SDS011;3642;52.506;13.304;2022-07-19T07:43:45;2.28;;;1.70;;
7201;SDS011;3642;52.506;13.304;2022-07-19T07:46:13;5.45;;;2.00;;
7201;SDS011;3642;52.506;13.304;2022-07-19T07:48:42;2.65;;;1.95;;
7201;SDS011;3642;52.506;13.304;2022-07-19T07:51:11;6.68;;;2.13;;
7201;SDS011;3642;52.506;13.304;2022-07-19T07:54:00;3.13;;;2.20;;
7201;SDS011;3642;52.506;13.304;2022-07-19T07:56:29;4.90;;;2.00;;
7201;SDS011;3642;52.506;13.304;2022-07-19T07:58:58;2.25;;;2.05;;
7201;SDS011;3642;52.506;13.304;2022-07-19T08:01:26;2.45;;;2.17;;
7201;SDS011;3642;52.506;13.304;2022-07-19T08:03:56;2.80;;;1.98;;
7201;SDS011;3642;52.506;13.304;2022-07-19T08:06:25;3.63;;;1.85;;
7201;SDS011;3642;52.506;13.304;2022-07-19T08:08:53;2.00;;;1.80;;
7201;SDS011;3642;52.506;13.304;2022-07-19T08:11:21;3.88;;;1.92;;
7201;SDS011;3642;52.506;13.304;2022-07-19T08:13:51;3.97;;;2.05;;
7201;SDS011;3642;52.506;13.304;2022-07-19T08:16:19;2.83;;;1.90;;
7201;SDS011;3642;52.506;13.304;2022-07-19T08:18:48;3.28;;;1.98;;
7201;SDS011;3642;52.506;13.304;2022-07-19T08:21:17;6.65;;;2.13;;
7201;SDS011;3642;52.506;13.304;2022-07-19T08:23:45;4.28;;;2.00;;
7201;SDS011;3642;52.506;13.304;2022-07-19T08:26:13;3.22;;;1.83;;
7201;SDS011;3642;52.506;13.304;2022-07-19T08:28:42;5.57;;;2.40;;
7201;SDS011;3642;52.506;13.304;2022-07-19T08:31:14;3.33;;;1.90;;
7201;SDS011;3642;52.506;13.304;2022-07-19T08:33:43;6.68;;;2.28;;
7201;SDS011;3642;52.506;13.304;2022-07-19T08:36:11;3.72;;;2.60;;
7201;SDS011;3642;52.506;13.304;2022-07-19T08:38:40;6.95;;;2.10;;
7201;SDS011;3642;52.506;13.304;2022-07-19T08:41:08;4.40;;;1.73;;
7201;SDS011;3642;52.506;13.304;2022-07-19T08:43:37;4.40;;;1.95;;
7201;SDS011;3642;52.506;13.304;2022-07-19T08:46:05;2.78;;;2.08;;
7201;SDS011;3642;52.506;13.304;2022-07-19T08:48:36;2.40;;;2.03;;
7201;SDS011;3642;52.506;13.304;2022-07-19T08:51:13;5.13;;;1.77;;
7201;SDS011;3642;52.506;13.304;2022-07-19T08:53:46;3.17;;;1.70;;
7201;SDS011;3642;52.506;13.304;2022-07-19T08:56:18;4.80;;;2.72;;
7201;SDS011;3642;52.506;13.304;2022-07-19T08:59:04;3.97;;;2.03;;
7201;SDS011;3642;52.506;13.304;2022-07-19T09:01:32;2.53;;;2.08;;
7201;SDS011;3642;52.506;13.304;2022-07-19T09:04:05;2.15;;;1.90;;
7201;SDS011;3642;52.506;13.304;2022-07-19T09:06:36;5.85;;;2.47;;
7201;SDS011;3642;52.506;13.304;2022-07-19T09:09:06;4.35;;;1.95;;
7201;SDS011;3642;52.506;13.304;2022-07-19T09:11:35;4.72;;;2.05;;
7201;SDS011;3642;52.506;13.304;2022-07-19T09:14:05;2.30;;;2.00;;
7201;SDS011;3642;52.506;13.304;2022-07-19T09:16:51;3.03;;;1.98;;
7201;SDS011;3642;52.506;13.304;2022-07-19T09:19:24;4.30;;;1.90;;
7201;SDS011;3642;52.506;13.304;2022-07-19T09:21:58;5.25;;;2.08;;
7201;SDS011;3642;52.506;13.304;2022-07-19T09:24:29;5.93;;;2.08;;
7201;SDS011;3642;52.506;13.304;2022-07-19T09:27:03;3.10;;;2.03;;
7201;SDS011;3642;52.506;13.304;2022-07-19T09:29:34;2.40;;;2.20;;
7201;SDS011;3642;52.506;13.304;2022-07-19T09:32:06;2.97;;;2.08;;
7201;SDS011;3642;52.506;13.304;2022-07-19T09:34:51;2.92;;;1.88;;
7201;SDS011;3642;52.506;13.304;2022-07-19T09:37:21;4.38;;;1.50;;
7201;SDS011;3642;52.506;13.304;2022-07-19T09:39:52;5.68;;;2.65;;
7201;SDS011;3642;52.506;13.304;2022-07-19T09:42:22;4.10;;;1.90;;
7201;SDS011;3642;52.506;13.304;2022-07-19T09:44:59;4.57;;;2.33;;
7201;SDS011;3642;52.506;13.304;2022-07-19T09:47:32;4.38;;;2.25;;
7201;SDS011;3642;52.506;13.304;2022-07-19T09:50:03;2.22;;;1.70;;
7201;SDS011;3642;52.506;13.304;2022-07-19T09:52:34;4.40;;;2.10;;
7201;SDS011;3642;52.506;13.304;2022-07-19T09:55:11;4.03;;;2.30;;
7201;SDS011;3642;52.506;13.304;2022-07-19T09:57:41;3.47;;;1.85;;
7201;SDS011;3642;52.506;13.304;2022-07-19T10:00:11;4.80;;;2.22;;
7201;SDS011;3642;52.506;13.304;2022-07-19T10:02:42;2.55;;;1.98;;
7201;SDS011;3642;52.506;13.304;2022-07-19T10:05:13;7.18;;;1.83;;
7201;SDS011;3642;52.506;13.304;2022-07-19T10:07:42;2.22;;;1.90;;
7201;SDS011;3642;52.506;13.304;2022-07-19T10:10:12;3.83;;;1.90;;
7201;SDS011;3642;52.506;13.304;2022-07-19T10:12:45;2.85;;;1.98;;
7201;SDS011;3642;52.506;13.304;2022-07-19T10:15:15;4.13;;;1.95;;
7201;SDS011;3642;52.506;13.304;2022-07-19T10:17:52;2.45;;;2.22;;
7201;SDS011;3642;52.506;13.304;2022-07-19T10:20:32;3.33;;;2.00;;
7201;SDS011;3642;52.506;13.304;2022-07-19T10:23:04;3.45;;;1.73;;
7201;SDS011;3642;52.506;13.304;2022-07-19T10:25:41;4.20;;;2.10;;
7201;SDS011;3642;52.506;13.304;2022-07-19T10:28:26;2.70;;;2.38;;
7201;SDS011;3642;52.506;13.304;2022-07-19T10:31:23;3.72;;;2.33;;
7201;SDS011;3642;52.506;13.304;2022-07-19T10:33:58;1.98;;;1.70;;
7201;SDS011;3642;52.506;13.304;2022-07-19T10:36:33;2.75;;;1.85;;
7201;SDS011;3642;52.506;13.304;2022-07-19T10:39:22;2.65;;;1.98;;
7201;SDS011;3642;52.506;13.304;2022-07-19T10:42:05;3.65;;;2.42;;
7201;SDS011;3642;52.506;13.304;2022-07-19T10:50:44;4.60;;;2.20;;
7201;SDS011;3642;52.506;13.304;2022-07-19T10:56:34;4.35;;;1.80;;
7201;SDS011;3642;52.506;13.304;2022-07-19T10:59:32;3.83;;;2.08;;
7201;SDS011;3642;52.506;13.304;2022-07-19T11:02:04;2.83;;;1.65;;
7201;SDS011;3642;52.506;13.304;2022-07-19T11:04:53;4.07;;;1.95;;
7201;SDS011;3642;52.506;13.304;2022-07-19T11:07:23;3.97;;;1.75;;
7201;SDS011;3642;52.506;13.304;2022-07-19T11:09:54;1.98;;;1.60;;
7201;SDS011;3642;52.506;13.304;2022-07-19T11:12:33;2.38;;;1.60;;
7201;SDS011;3642;52.506;13.304;2022-07-19T11:15:04;2.53;;;1.67;;
7201;SDS011;3642;52.506;13.304;2022-07-19T11:17:49;1.77;;;1.63;;
7201;SDS011;3642;52.506;13.304;2022-07-19T11:20:19;2.90;;;1.90;;
7201;SDS011;3642;52.506;13.304;2022-07-19T11:22:50;3.45;;;1.80;;
7201;SDS011;3642;52.506;13.304;2022-07-19T11:25:24;3.08;;;2.03;;
7201;SDS011;3642;52.506;13.304;2022-07-19T11:27:54;1.73;;;1.63;;
7201;SDS011;3642;52.506;13.304;2022-07-19T11:30:23;2.80;;;1.80;;
7201;SDS011;3642;52.506;13.304;2022-07-19T11:32:52;4.15;;;1.55;;
7201;SDS011;3642;52.506;13.304;2022-07-19T11:35:23;2.95;;;1.88;;
7201;SDS011;3642;52.506;13.304;2022-07-19T11:37:52;1.80;;;1.70;;
7201;SDS011;3642;52.506;13.304;2022-07-19T11:40:22;1.73;;;1.42;;
7201;SDS011;3642;52.506;13.304;2022-07-19T11:42:52;3.03;;;1.77;;
7201;SDS011;3642;52.506;13.304;2022-07-19T11:45:42;2.67;;;1.80;;
7201;SDS011;3642;52.506;13.304;2022-07-19T11:48:14;3.15;;;2.20;;
7201;SDS011;3642;52.506;13.304;2022-07-19T11:51:01;2.70;;;1.80;;
7201;SDS011;3642;52.506;13.304;2022-07-19T11:53:33;2.25;;;2.00;;
7201;SDS011;3642;52.506;13.304;2022-07-19T11:56:04;2.92;;;1.88;;
7201;SDS011;3642;52.506;13.304;2022-07-19T11:58:42;3.17;;;2.10;;
7201;SDS011;3642;52.506;13.304;2022-07-19T12:01:12;2.22;;;1.70;;
7201;SDS011;3642;52.506;13.304;2022-07-19T12:03:40;2.92;;;2.00;;
7201;SDS011;3642;52.506;13.304;2022-07-19T12:06:19;2.15;;;1.80;;
7201;SDS011;3642;52.506;13.304;2022-07-19T12:09:02;14.30;;;10.23;;
7201;SDS011;3642;52.506;13.304;2022-07-19T12:11:38;2.90;;;2.50;;
7201;SDS011;3642;52.506;13.304;2022-07-19T12:14:18;3.40;;;2.60;;
7201;SDS011;3642;52.506;13.304;2022-07-19T12:19:37;6.90;;;2.17;;
7201;SDS011;3642;52.506;13.304;2022-07-19T12:22:27;3.72;;;2.30;;
7201;SDS011;3642;52.506;13.304;2022-07-19T12:24:56;3.15;;;2.30;;
7201;SDS011;3642;52.506;13.304;2022-07-19T12:27:29;5.15;;;3.25;;
7201;SDS011;3642;52.506;13.304;2022-07-19T12:29:57;3.47;;;2.45;;
7201;SDS011;3642;52.506;13.304;2022-07-19T12:32:29;3.90;;;2.40;;
7201;SDS011;3642;52.506;13.304;2022-07-19T12:35:00;4.53;;;2.47;;
7201;SDS011;3642;52.506;13.304;2022-07-19T12:37:31;2.00;;;1.83;;
7201;SDS011;3642;52.506;13.304;2022-07-19T12:40:06;2.08;;;1.88;;
7201;SDS011;3642;52.506;13.304;2022-07-19T12:42:38;1.92;;;1.73;;
7201;SDS011;3642;52.506;13.304;2022-07-19T12:45:10;3.38;;;1.77;;
7201;SDS011;3642;52.506;13.304;2022-07-19T12:47:40;2.05;;;1.85;;
7201;SDS011;3642;52.506;13.304;2022-07-19T12:50:18;2.88;;;1.92;;
7201;SDS011;3642;52.506;13.304;2022-07-19T12:52:47;2.35;;;1.98;;
7201;SDS011;3642;52.506;13.304;2022-07-19T12:55:15;2.75;;;1.90;;
7201;SDS011;3642;52.506;13.304;2022-07-19T12:57:47;2.58;;;2.20;;
7201;SDS011;3642;52.506;13.304;2022-07-19T13:00:16;2.97;;;1.85;;
7201;SDS011;3642;52.506;13.304;2022-07-19T13:02:47;3.88;;;1.90;;
7201;SDS011;3642;52.506;13.304;2022-07-19T13:05:16;2.65;;;2.05;;
7201;SDS011;3642;52.506;13.304;2022-07-19T13:07:45;6.10;;;2.00;;
7201;SDS011;3642;52.506;13.304;2022-07-19T13:10:13;2.47;;;2.05;;
7201;SDS011;3642;52.506;13.304;2022-07-19T13:12:42;4.03;;;1.90;;
7201;SDS011;3642;52.506;13.304;2022-07-19T13:15:12;4.03;;;2.05;;
7201;SDS011;3642;52.506;13.304;2022-07-19T13:17:43;1.92;;;1.50;;
7201;SDS011;3642;52.506;13.304;2022-07-19T13:20:11;1.73;;;1.63;;
7201;SDS011;3642;52.506;13.304;2022-07-19T13:22:41;2.22;;;1.52;;
7201;SDS011;3642;52.506;13.304;2022-07-19T13:25:10;4.55;;;2.30;;
7201;SDS011;3642;52.506;13.304;2022-07-19T13:27:59;1.95;;;1.75;;
7201;SDS011;3642;52.506;13.304;2022-07-19T13:30:29;1.88;;;1.67;;
7201;SDS011;3642;52.506;13.304;2022-07-19T13:32:57;3.13;;;1.92;;
7201;SDS011;3642;52.506;13.304;2022-07-19T13:35:27;2.10;;;1.70;;
7201;SDS011;3642;52.506;13.304;2022-07-19T13:37:56;2.20;;;2.00;;
7201;SDS011;3642;52.506;13.304;2022-07-19T13:40:25;1.65;;;1.55;;
7201;SDS011;3642;52.506;13.304;2022-07-19T13:42:54;2.55;;;1.90;;
7201;SDS011;3642;52.506;13.304;2022-07-19T13:45:22;2.03;;;1.80;;
7201;SDS011;3642;52.506;13.304;2022-07-19T13:47:52;3.72;;;1.85;;
7201;SDS011;3642;52.506;13.304;2022-07-19T13:50:26;2.75;;;1.70;;
7201;SDS011;3642;52.506;13.304;2022-07-19T13:52:56;3.08;;;1.83;;
7201;SDS011;3642;52.506;13.304;2022-07-19T13:55:25;2.58;;;1.90;;
7201;SDS011;3642;52.506;13.304;2022-07-19T13:57:54;2.65;;;1.75;;
7201;SDS011;3642;52.506;13.304;2022-07-19T14:00:22;2.47;;;2.28;;
7201;SDS011;3642;52.506;13.304;2022-07-19T14:02:54;4.07;;;2.03;;
7201;SDS011;3642;52.506;13.304;2022-07-19T14:05:24;3.67;;;1.90;;
7201;SDS011;3642;52.506;13.304;2022-07-19T14:07:52;3.85;;;2.00;;
7201;SDS011;3642;52.506;13.304;2022-07-19T14:10:21;7.38;;;2.42;;
7201;SDS011;3642;52.506;13.304;2022-07-19T14:12:49;3.85;;;1.85;;
7201;SDS011;3642;52.506;13.304;2022-07-19T14:15:37;3.55;;;1.92;;
7201;SDS011;3642;52.506;13.304;2022-07-19T14:18:06;2.88;;;1.90;;
7201;SDS011;3642;52.506;13.304;2022-07-19T14:20:35;2.67;;;2.05;;
7201;SDS011;3642;52.506;13.304;2022-07-19T14:23:03;3.15;;;2.22;;
7201;SDS011;3642;52.506;13.304;2022-07-19T14:25:31;2.60;;;1.90;;
7201;SDS011;3642;52.506;13.304;2022-07-19T14:28:00;3.05;;;2.08;;
7201;SDS011;3642;52.506;13.304;2022-07-19T14:30:28;2.55;;;2.03;;
7201;SDS011;3642;52.506;13.304;2022-07-19T14:32:56;4.10;;;3.00;;
7201;SDS011;3642;52.506;13.304;2022-07-19T14:35:26;2.47;;;2.00;;
7201;SDS011;3642;52.506;13.304;2022-07-19T14:37:54;2.85;;;1.92;;
7201;SDS011;3642;52.506;13.304;2022-07-19T14:40:23;3.38;;;2.58;;
7201;SDS011;3642;52.506;13.304;2022-07-19T14:42:51;2.83;;;1.98;;
7201;SDS011;3642;52.506;13.304;2022-07-19T14:45:20;2.80;;;2.10;;
7201;SDS011;3642;52.506;13.304;2022-07-19T14:47:49;2.78;;;2.33;;
7201;SDS011;3642;52.506;13.304;2022-07-19T14:50:21;3.28;;;1.80;;
7201;SDS011;3642;52.506;13.304;2022-07-19T14:52:51;3.47;;;2.17;;
7201;SDS011;3642;52.506;13.304;2022-07-19T14:55:22;2.10;;;1.90;;
7201;SDS011;3642;52.506;13.304;2022-07-19T14:57:50;2.58;;;1.83;;
7201;SDS011;3642;52.506;13.304;2022-07-19T15:00:18;5.30;;;2.33;;
7201;SDS011;3642;52.506;13.304;2022-07-19T15:02:46;3.30;;;2.10;;
7201;SDS011;3642;52.506;13.304;2022-07-19T15:05:14;3.03;;;2.20;;
7201;SDS011;3642;52.506;13.304;2022-07-19T15:07:42;4.03;;;2.70;;
7201;SDS011;3642;52.506;13.304;2022-07-19T15:10:12;2.88;;;2.13;;
7201;SDS011;3642;52.506;13.304;2022-07-19T15:12:40;4.85;;;2.17;;
7201;SDS011;3642;52.506;13.304;2022-07-19T15:15:08;3.53;;;2.33;;
7201;SDS011;3642;52.506;13.304;2022-07-19T15:17:37;6.03;;;2.03;;
7201;SDS011;3642;52.506;13.304;2022-07-19T15:20:06;2.30;;;1.90;;
7201;SDS011;3642;52.506;13.304;2022-07-19T15:22:34;2.08;;;1.88;;
7201;SDS011;3642;52.506;13.304;2022-07-19T15:25:04;4.13;;;2.40;;
7201;SDS011;3642;52.506;13.304;2022-07-19T15:27:34;4.82;;;2.50;;
7201;SDS011;3642;52.506;13.304;2022-07-19T15:30:07;2.42;;;2.22;;
7201;SDS011;3642;52.506;13.304;2022-07-19T15:32:36;2.88;;;1.98;;